Terminal Aerodrome Forecast
Issued by NWS

Home | Current Version | Previous Version | Text Only | Print | Product List | Glossary On
Versions: 1 2 3 4 5 6 7 8 9 10 11 12 13 14
501
FTUS43 KGRR 091151
TAFLAN
TAF
KLAN 091151Z 0912/1012 31012KT 4SM -SHSN BR OVC012
      TEMPO 0912/0914 OVC008
     FM091600 32012G22KT 5SM -SHSN OVC012
     FM091900 31012G20KT 6SM -SHSN OVC015=

USA.gov is the U.S. government's official web portal to all federal, state and local government web resources and services.